createdAt,value
2019-05-01T00:00:31.607Z,7.30
2019-05-01T00:03:18.993Z,7.20
2019-05-01T00:05:53.375Z,7.20
2019-05-01T00:08:23.078Z,7.10
2019-05-01T00:10:53.088Z,7.10
2019-05-01T00:13:22.945Z,7.00
2019-05-01T00:15:54.388Z,7.00
2019-05-01T00:18:24.095Z,6.90
2019-05-01T00:20:53.823Z,6.90
2019-05-01T00:23:23.651Z,6.80
2019-05-01T00:25:53.342Z,6.80
2019-05-01T00:28:23.107Z,6.80
2019-05-01T00:30:52.831Z,6.70
2019-05-01T00:33:23.137Z,6.70
2019-05-01T00:35:52.823Z,6.60
2019-05-01T00:38:22.508Z,6.50
2019-05-01T00:40:52.222Z,6.50
2019-05-01T00:43:21.980Z,6.40
2019-05-01T00:45:51.720Z,6.40
2019-05-01T00:48:21.399Z,6.40
2019-05-01T00:50:51.135Z,6.30
2019-05-01T00:53:20.839Z,6.30
2019-05-01T00:56:02.974Z,6.30
2019-05-01T00:58:50.311Z,6.20
2019-05-01T01:01:37.493Z,6.20
2019-05-01T01:04:07.998Z,6.10
2019-05-01T01:06:37.811Z,6.10
2019-05-01T01:09:08.577Z,6.10
2019-05-01T01:11:38.356Z,6.10
2019-05-01T01:14:08.144Z,6.10
2019-05-01T01:16:37.893Z,6.00
2019-05-01T01:19:07.616Z,6.00
2019-05-01T01:21:37.434Z,6.00
2019-05-01T01:24:07.256Z,6.00
2019-05-01T01:26:37.164Z,6.00
2019-05-01T01:29:06.992Z,6.00
2019-05-01T01:31:36.667Z,5.90
2019-05-01T01:34:06.491Z,5.90
2019-05-01T01:36:36.180Z,5.90
2019-05-01T01:39:07.172Z,5.90
2019-05-01T01:41:37.065Z,5.90
2019-05-01T01:44:16.588Z,5.80
2019-05-01T01:46:46.833Z,5.80
2019-05-01T01:49:16.861Z,5.70
2019-05-01T01:51:46.979Z,5.70
2019-05-01T01:54:16.800Z,5.60
2019-05-01T01:56:46.726Z,5.60
2019-05-01T01:59:16.558Z,5.60
2019-05-01T02:01:54.495Z,5.60
2019-05-01T02:04:48.888Z,5.60
2019-05-01T02:07:18.603Z,5.60
2019-05-01T02:09:48.299Z,5.70
2019-05-01T02:12:18.309Z,5.70
2019-05-01T02:14:48.027Z,5.70
2019-05-01T02:17:17.723Z,5.70
2019-05-01T02:19:47.446Z,5.60
2019-05-01T02:22:17.100Z,5.50
2019-05-01T02:24:46.921Z,5.50
2019-05-01T02:27:22.138Z,5.50
2019-05-01T02:29:56.079Z,5.50
2019-05-01T02:32:29.535Z,5.50
2019-05-01T02:35:01.530Z,5.60
2019-05-01T02:37:33.531Z,5.70
2019-05-01T02:40:06.719Z,5.70
2019-05-01T02:42:39.372Z,5.80
2019-05-01T02:45:12.525Z,5.80
2019-05-01T02:47:44.584Z,5.90
2019-05-01T02:50:15.559Z,6.00
2019-05-01T02:52:45.339Z,6.00
2019-05-01T02:55:23.688Z,6.10
2019-05-01T02:57:54.332Z,6.10
2019-05-01T03:00:24.038Z,6.20
2019-05-01T03:02:54.009Z,6.20
2019-05-01T03:05:23.910Z,6.30
2019-05-01T03:07:54.428Z,6.40
2019-05-01T03:10:24.927Z,6.50
2019-05-01T03:12:56.502Z,6.60
2019-05-01T03:15:29.498Z,6.70
2019-05-01T03:18:18.461Z,6.70
2019-05-01T03:21:22.143Z,6.80
2019-05-01T03:23:55.801Z,6.70
2019-05-01T03:26:26.109Z,6.70
2019-05-01T03:28:56.149Z,6.70
2019-05-01T03:31:26.146Z,6.80
2019-05-01T03:33:55.963Z,6.80
2019-05-01T03:36:25.788Z,6.80
2019-05-01T03:38:55.675Z,6.90
2019-05-01T03:41:25.504Z,6.90
2019-05-01T03:43:56.108Z,7.00
2019-05-01T03:46:26.607Z,7.00
2019-05-01T03:48:56.451Z,7.00
2019-05-01T03:51:26.155Z,7.10
2019-05-01T03:53:55.862Z,7.20
2019-05-01T03:56:25.820Z,7.30
2019-05-01T03:58:57.066Z,7.30
2019-05-01T04:02:04.258Z,7.40
2019-05-01T04:04:34.052Z,7.40
2019-05-01T04:07:03.873Z,7.40
2019-05-01T04:09:33.731Z,7.40
2019-05-01T04:12:04.197Z,7.40
2019-05-01T04:14:34.343Z,7.40
2019-05-01T04:17:25.825Z,7.40
2019-05-01T04:19:55.631Z,7.40
2019-05-01T04:22:25.467Z,7.60
2019-05-01T04:24:55.775Z,7.80
2019-05-01T04:27:31.106Z,8.00
2019-05-01T04:30:17.147Z,8.20
2019-05-01T04:32:52.830Z,8.50
2019-05-01T04:35:42.951Z,8.50
2019-05-01T04:38:12.796Z,8.60
2019-05-01T04:40:42.609Z,8.80
2019-05-01T04:43:12.864Z,9.00
2019-05-01T04:45:42.797Z,9.10
2019-05-01T04:48:13.207Z,9.10
2019-05-01T04:50:43.157Z,9.00
2019-05-01T04:53:13.023Z,8.90
2019-05-01T04:55:42.821Z,8.80
2019-05-01T04:58:12.741Z,8.80
2019-05-01T05:00:42.612Z,8.60
2019-05-01T05:03:16.645Z,8.60
2019-05-01T05:05:46.506Z,8.70
2019-05-01T05:08:16.905Z,8.80
2019-05-01T05:10:47.672Z,8.90
2019-05-01T05:13:31.421Z,9.00
2019-05-01T05:16:16.803Z,9.20
2019-05-01T05:18:46.729Z,9.30
2019-05-01T05:21:16.665Z,9.50
2019-05-01T05:23:46.391Z,9.70
2019-05-01T05:26:16.763Z,10.10
2019-05-01T05:28:47.577Z,10.50
2019-05-01T05:31:18.983Z,10.70
2019-05-01T05:33:50.538Z,10.80
2019-05-01T05:36:22.366Z,10.70
2019-05-01T05:39:22.237Z,10.70
2019-05-01T05:41:53.510Z,10.60
2019-05-01T05:44:24.505Z,10.70
2019-05-01T05:46:54.425Z,10.80
2019-05-01T05:49:25.843Z,10.90
2019-05-01T05:52:12.260Z,10.90
2019-05-01T05:55:05.398Z,10.90
2019-05-01T05:58:01.911Z,11.10
2019-05-01T06:00:47.755Z,11.30
2019-05-01T06:03:38.543Z,11.60
2019-05-01T06:06:19.230Z,11.90
2019-05-01T06:08:52.409Z,12.30
2019-05-01T06:11:51.526Z,12.70
2019-05-01T06:15:02.463Z,13.00
2019-05-01T06:17:37.517Z,13.10
2019-05-01T06:20:14.742Z,13.20
2019-05-01T06:23:15.752Z,13.20
2019-05-01T06:25:47.012Z,13.20
2019-05-01T06:28:19.970Z,13.30
2019-05-01T06:30:49.265Z,13.40
2019-05-01T06:33:18.996Z,13.30
2019-05-01T06:35:48.745Z,13.30
2019-05-01T06:38:18.490Z,13.40
2019-05-01T06:40:53.099Z,13.40
2019-05-01T06:43:46.606Z,13.20
2019-05-01T06:46:39.309Z,13.10
2019-05-01T06:49:46.088Z,13.00
2019-05-01T06:52:20.526Z,13.00
2019-05-01T06:54:52.110Z,12.90
2019-05-01T06:57:23.616Z,13.00
2019-05-01T06:59:53.391Z,12.90
2019-05-01T07:02:24.111Z,12.90
2019-05-01T07:04:53.977Z,12.80
2019-05-01T07:07:25.654Z,12.80
2019-05-01T07:09:58.468Z,12.80
2019-05-01T07:12:32.255Z,12.90
2019-05-01T07:15:02.934Z,13.10
2019-05-01T07:17:33.240Z,13.30
2019-05-01T07:20:28.566Z,13.50
2019-05-01T07:22:58.432Z,13.70
2019-05-01T07:25:28.109Z,13.90
2019-05-01T07:27:58.555Z,14.10
2019-05-01T07:30:54.743Z,14.20
2019-05-01T07:33:26.138Z,14.40
2019-05-01T07:35:56.100Z,14.60
2019-05-01T07:38:25.911Z,14.70
2019-05-01T07:40:58.887Z,14.90
2019-05-01T07:43:43.166Z,14.90
2019-05-01T07:46:30.894Z,15.00
2019-05-01T07:49:01.399Z,15.20
2019-05-01T07:51:31.158Z,15.30
2019-05-01T07:54:04.070Z,15.50
2019-05-01T07:56:33.024Z,15.50
2019-05-01T07:59:02.974Z,15.60
2019-05-01T08:01:54.352Z,15.60
2019-05-01T08:04:35.188Z,15.60
2019-05-01T08:06:57.087Z,15.80
2019-05-01T08:09:24.835Z,16.00
2019-05-01T08:11:54.507Z,16.20
2019-05-01T08:14:24.191Z,16.20
2019-05-01T08:16:53.935Z,16.00
2019-05-01T08:19:34.689Z,15.80
2019-05-01T08:22:24.650Z,15.70
2019-05-01T08:24:58.612Z,15.70
2019-05-01T08:27:51.159Z,15.80
2019-05-01T08:30:36.337Z,15.80
2019-05-01T08:33:25.074Z,16.00
2019-05-01T08:35:56.552Z,16.30
2019-05-01T08:38:29.862Z,16.60
2019-05-01T08:40:57.711Z,17.00
2019-05-01T08:43:27.592Z,17.30
2019-05-01T08:46:18.282Z,17.50
2019-05-01T08:49:06.820Z,17.50
2019-05-01T08:51:37.751Z,17.40
2019-05-01T08:54:07.499Z,17.20
2019-05-01T08:56:37.256Z,17.10
2019-05-01T08:59:06.953Z,17.00
2019-05-01T09:01:36.687Z,16.90
2019-05-01T09:04:12.667Z,16.80
2019-05-01T09:06:39.327Z,16.70
2019-05-01T09:09:10.076Z,16.80
2019-05-01T09:11:39.843Z,16.90
2019-05-01T09:14:09.535Z,17.00
2019-05-01T09:16:39.239Z,17.10
2019-05-01T09:19:08.987Z,17.30
2019-05-01T09:21:39.509Z,17.30
2019-05-01T09:24:09.457Z,17.50
2019-05-01T09:27:02.371Z,17.50
2019-05-01T09:29:38.611Z,17.60
2019-05-01T09:32:10.249Z,17.60
2019-05-01T09:34:39.848Z,17.50
2019-05-01T09:37:09.663Z,17.50
2019-05-01T09:39:39.607Z,17.50
2019-05-01T09:42:09.627Z,17.70
2019-05-01T09:44:39.370Z,17.90
2019-05-01T09:47:09.184Z,18.10
2019-05-01T09:49:39.024Z,18.10
2019-05-01T09:52:26.521Z,18.30
2019-05-01T09:54:59.808Z,18.50
2019-05-01T09:57:29.550Z,18.70
2019-05-01T09:59:59.263Z,19.00
2019-05-01T10:02:29.027Z,19.10
2019-05-01T10:05:01.982Z,19.20
2019-05-01T10:07:30.805Z,19.10
2019-05-01T10:10:00.625Z,18.90
2019-05-01T10:12:30.285Z,18.70
2019-05-01T10:15:00.012Z,18.70
2019-05-01T10:17:29.796Z,18.70
2019-05-01T10:19:59.442Z,18.60
2019-05-01T10:22:32.972Z,18.50
2019-05-01T10:25:00.496Z,18.50
2019-05-01T10:27:35.765Z,18.60
2019-05-01T10:30:24.945Z,18.60
2019-05-01T10:33:02.731Z,18.60
2019-05-01T10:35:50.161Z,18.60
2019-05-01T10:38:19.853Z,18.60
2019-05-01T10:40:51.462Z,18.70
2019-05-01T10:43:21.206Z,18.80
2019-05-01T10:45:50.887Z,18.70
2019-05-01T10:48:20.608Z,18.40
2019-05-01T10:50:52.736Z,18.40
2019-05-01T10:53:22.468Z,18.30
2019-05-01T10:55:52.223Z,18.40
2019-05-01T10:58:21.973Z,18.50
2019-05-01T11:00:54.592Z,18.60
2019-05-01T11:03:24.408Z,18.50
2019-05-01T11:05:56.320Z,18.60
2019-05-01T11:08:26.289Z,18.60
2019-05-01T11:10:55.992Z,18.70
2019-05-01T11:13:25.691Z,18.90
2019-05-01T11:15:55.471Z,19.00
2019-05-01T11:18:25.241Z,19.00
2019-05-01T11:20:55.179Z,19.00
2019-05-01T11:23:24.991Z,18.90
2019-05-01T11:25:54.866Z,18.90
2019-05-01T11:28:24.579Z,19.10
2019-05-01T11:30:54.340Z,19.30
2019-05-01T11:33:56.198Z,19.50
2019-05-01T11:36:47.732Z,19.80
2019-05-01T11:39:48.378Z,20.00
2019-05-01T11:42:18.280Z,20.00
2019-05-01T11:44:47.984Z,19.90
2019-05-01T11:47:17.707Z,19.80
2019-05-01T11:49:47.399Z,20.00
2019-05-01T11:52:17.204Z,20.20
2019-05-01T11:54:46.926Z,20.40
2019-05-01T11:57:16.696Z,20.50
2019-05-01T11:59:46.397Z,20.50
2019-05-01T12:02:16.211Z,20.50
2019-05-01T12:04:46.073Z,20.50
2019-05-01T12:07:15.719Z,20.50
2019-05-01T12:09:45.419Z,20.30
2019-05-01T12:12:16.728Z,20.10
2019-05-01T12:14:46.408Z,19.90
2019-05-01T12:17:39.011Z,19.90
2019-05-01T12:20:09.319Z,19.90
2019-05-01T12:22:39.045Z,19.60
2019-05-01T12:25:08.944Z,19.40
2019-05-01T12:27:38.803Z,19.20
2019-05-01T12:30:09.342Z,19.10
2019-05-01T12:32:39.083Z,18.90
2019-05-01T12:35:09.022Z,18.80
2019-05-01T12:37:42.728Z,18.80
2019-05-01T12:40:18.024Z,18.90
2019-05-01T12:42:48.125Z,19.10
2019-05-01T12:45:18.365Z,19.20
2019-05-01T12:47:56.148Z,19.40
2019-05-01T12:50:25.860Z,19.60
2019-05-01T12:53:20.828Z,19.70
2019-05-01T12:56:15.593Z,19.70
2019-05-01T12:58:47.319Z,19.90
2019-05-01T13:01:17.051Z,20.00
2019-05-01T13:03:46.738Z,20.10
2019-05-01T13:06:16.574Z,20.10
2019-05-01T13:08:46.419Z,20.20
2019-05-01T13:11:16.176Z,20.40
2019-05-01T13:13:45.878Z,20.60
2019-05-01T13:16:15.648Z,20.80
2019-05-01T13:18:45.369Z,20.70
2019-05-01T13:21:15.065Z,20.70
2019-05-01T13:23:44.819Z,20.50
2019-05-01T13:26:33.464Z,20.40
2019-05-01T13:29:11.718Z,20.40
2019-05-01T13:32:00.233Z,20.50
2019-05-01T13:34:30.005Z,20.50
2019-05-01T13:37:03.083Z,20.30
2019-05-01T13:39:31.121Z,20.20
2019-05-01T13:42:00.886Z,20.00
2019-05-01T13:44:30.595Z,19.90
2019-05-01T13:47:00.423Z,19.60
2019-05-01T13:49:30.127Z,19.50
2019-05-01T13:51:59.802Z,19.50
2019-05-01T13:54:29.572Z,19.50
2019-05-01T13:56:59.310Z,19.60
2019-05-01T13:59:29.043Z,19.80
2019-05-01T14:01:58.882Z,19.90
2019-05-01T14:04:30.360Z,20.00
2019-05-01T14:07:00.083Z,20.20
2019-05-01T14:09:33.363Z,20.30
2019-05-01T14:12:03.298Z,20.20
2019-05-01T14:14:32.984Z,20.10
2019-05-01T14:17:02.864Z,20.20
2019-05-01T14:19:33.858Z,20.20
2019-05-01T14:22:21.428Z,20.30
2019-05-01T14:24:54.207Z,20.20
2019-05-01T14:27:23.907Z,20.10
2019-05-01T14:29:53.642Z,19.90
2019-05-01T14:32:23.382Z,19.70
2019-05-01T14:34:53.099Z,19.50
2019-05-01T14:37:29.456Z,19.50
2019-05-01T14:39:54.147Z,19.40
2019-05-01T14:42:23.882Z,19.40
2019-05-01T14:44:53.597Z,19.30
2019-05-01T14:47:23.298Z,19.30
2019-05-01T14:49:53.010Z,19.30
2019-05-01T14:52:22.737Z,19.40
2019-05-01T14:54:52.427Z,19.40
2019-05-01T14:57:22.195Z,19.40
2019-05-01T14:59:51.912Z,19.30
2019-05-01T15:02:21.610Z,19.30
2019-05-01T15:04:51.356Z,19.30
2019-05-01T15:07:21.098Z,19.30
2019-05-01T15:09:50.808Z,19.30
2019-05-01T15:12:20.504Z,19.30
2019-05-01T15:15:18.080Z,19.20
2019-05-01T15:18:12.811Z,19.10
2019-05-01T15:20:42.728Z,18.80
2019-05-01T15:23:12.574Z,18.60
2019-05-01T15:25:42.302Z,18.60
2019-05-01T15:28:14.606Z,18.50
2019-05-01T15:30:44.325Z,18.50
2019-05-01T15:33:14.238Z,18.30
2019-05-01T15:35:43.999Z,18.10
2019-05-01T15:38:13.812Z,18.00
2019-05-01T15:41:11.259Z,17.90
2019-05-01T15:43:51.028Z,17.80
2019-05-01T15:46:20.749Z,17.70
2019-05-01T15:48:50.487Z,17.70
2019-05-01T15:51:20.203Z,17.70
2019-05-01T15:53:49.928Z,17.60
2019-05-01T15:56:19.626Z,17.60
2019-05-01T15:58:49.354Z,17.60
2019-05-01T16:01:19.176Z,17.60
2019-05-01T16:03:48.886Z,17.50
2019-05-01T16:06:18.617Z,17.50
2019-05-01T16:08:48.356Z,17.40
2019-05-01T16:11:34.093Z,17.40
2019-05-01T16:14:03.818Z,17.30
2019-05-01T16:16:33.989Z,17.30
2019-05-01T16:19:04.927Z,17.20
2019-05-01T16:21:34.831Z,17.10
2019-05-01T16:24:05.479Z,17.10
2019-05-01T16:26:35.196Z,17.00
2019-05-01T16:29:05.095Z,16.90
2019-05-01T16:31:34.870Z,16.90
2019-05-01T16:34:04.625Z,16.80
2019-05-01T16:36:36.134Z,16.80
2019-05-01T16:39:26.084Z,16.80
2019-05-01T16:41:55.768Z,16.70
2019-05-01T16:44:25.541Z,16.70
2019-05-01T16:46:55.244Z,16.70
2019-05-01T16:49:24.956Z,16.60
2019-05-01T16:51:54.854Z,16.70
2019-05-01T16:54:24.525Z,16.70
2019-05-01T16:56:54.210Z,16.70
2019-05-01T16:59:23.923Z,16.80
2019-05-01T17:02:00.103Z,16.90
2019-05-01T17:04:54.926Z,16.90
2019-05-01T17:07:39.028Z,16.80
2019-05-01T17:10:17.549Z,16.70
2019-05-01T17:12:49.003Z,16.70
2019-05-01T17:15:26.145Z,16.60
2019-05-01T17:17:56.532Z,16.50
2019-05-01T17:20:26.497Z,16.40
2019-05-01T17:22:56.414Z,16.30
2019-05-01T17:25:26.161Z,16.20
2019-05-01T17:27:55.864Z,16.10
2019-05-01T17:30:42.233Z,16.00
2019-05-01T17:33:19.506Z,16.00
2019-05-01T17:35:43.442Z,15.80
2019-05-01T17:38:13.657Z,15.80
2019-05-01T17:40:47.223Z,15.70
2019-05-01T17:43:15.452Z,15.50
2019-05-01T17:45:45.489Z,15.40
2019-05-01T17:48:15.182Z,15.30
2019-05-01T17:50:44.957Z,15.20
2019-05-01T17:53:14.772Z,15.00
2019-05-01T17:55:44.456Z,15.00
2019-05-01T17:58:14.299Z,14.70
2019-05-01T18:01:12.102Z,14.50
2019-05-01T18:03:57.744Z,14.30
2019-05-01T18:06:33.098Z,14.00
2019-05-01T18:09:03.519Z,13.80
2019-05-01T18:11:34.187Z,13.60
2019-05-01T18:14:05.657Z,13.50
2019-05-01T18:16:35.483Z,13.40
2019-05-01T18:19:09.762Z,13.40
2019-05-01T18:21:38.238Z,13.30
2019-05-01T18:24:33.089Z,13.30
2019-05-01T18:27:24.802Z,13.20
2019-05-01T18:29:57.618Z,13.30
2019-05-01T18:32:41.608Z,13.30
2019-05-01T18:35:14.043Z,13.30
2019-05-01T18:37:50.694Z,13.20
2019-05-01T18:40:25.078Z,13.00
2019-05-01T18:42:54.776Z,12.90
2019-05-01T18:45:50.632Z,12.70
2019-05-01T18:48:21.616Z,12.60
2019-05-01T18:50:55.064Z,12.40
2019-05-01T18:53:23.493Z,12.30
2019-05-01T18:55:53.180Z,12.20
2019-05-01T18:58:22.879Z,12.10
2019-05-01T19:00:52.772Z,12.10
2019-05-01T19:03:22.714Z,12.00
2019-05-01T19:05:52.626Z,12.00
2019-05-01T19:08:22.358Z,12.00
2019-05-01T19:10:52.071Z,12.00
2019-05-01T19:13:22.717Z,12.00
2019-05-01T19:15:52.615Z,12.00
2019-05-01T19:18:22.603Z,12.00
2019-05-01T19:20:59.743Z,11.90
2019-05-01T19:23:27.717Z,12.00
2019-05-01T19:26:04.954Z,12.00
2019-05-01T19:28:30.086Z,12.00
2019-05-01T19:30:59.940Z,12.00
2019-05-01T19:33:29.744Z,12.00
2019-05-01T19:36:02.677Z,12.00
2019-05-01T19:38:34.799Z,12.00
2019-05-01T19:41:03.555Z,12.00
2019-05-01T19:43:35.869Z,12.00
2019-05-01T19:46:06.370Z,12.00
2019-05-01T19:48:38.923Z,12.00
2019-05-01T19:51:08.719Z,12.10
2019-05-01T19:53:38.599Z,12.20
2019-05-01T19:56:08.356Z,12.40
2019-05-01T19:58:41.091Z,12.50
2019-05-01T20:01:10.852Z,12.60
2019-05-01T20:03:40.587Z,12.60
2019-05-01T20:06:10.305Z,12.70
2019-05-01T20:08:43.017Z,12.70
2019-05-01T20:11:12.971Z,12.70
2019-05-01T20:13:42.730Z,12.70
2019-05-01T20:16:13.280Z,12.80
2019-05-01T20:18:43.012Z,12.80
2019-05-01T20:21:12.781Z,12.80
2019-05-01T20:23:45.313Z,12.80
2019-05-01T20:26:15.105Z,12.80
2019-05-01T20:28:46.909Z,12.90
2019-05-01T20:31:17.904Z,12.90
2019-05-01T20:33:49.084Z,13.00
2019-05-01T20:36:18.810Z,12.90
2019-05-01T20:38:51.299Z,13.00
2019-05-01T20:41:21.110Z,12.90
2019-05-01T20:43:50.889Z,13.00
2019-05-01T20:46:21.320Z,13.00
2019-05-01T20:48:56.017Z,13.10
2019-05-01T20:51:24.861Z,13.10
2019-05-01T20:53:55.035Z,13.20
2019-05-01T20:56:36.188Z,13.20
2019-05-01T20:59:05.903Z,13.20
2019-05-01T21:01:35.733Z,13.30
2019-05-01T21:04:23.856Z,13.40
2019-05-01T21:07:19.933Z,13.50
2019-05-01T21:09:48.369Z,13.40
2019-05-01T21:12:18.891Z,13.50
2019-05-01T21:14:51.052Z,13.40
2019-05-01T21:17:20.894Z,13.50
2019-05-01T21:19:50.595Z,13.40
2019-05-01T21:22:20.306Z,13.40
2019-05-01T21:24:50.034Z,13.40
2019-05-01T21:27:19.855Z,13.30
2019-05-01T21:29:49.582Z,13.30
2019-05-01T21:32:26.091Z,13.20
2019-05-01T21:34:50.752Z,13.10
2019-05-01T21:37:20.499Z,13.10
2019-05-01T21:39:50.323Z,13.00
2019-05-01T21:42:20.072Z,12.90
2019-05-01T21:44:49.815Z,12.90
2019-05-01T21:47:19.577Z,12.80
2019-05-01T21:49:49.336Z,12.80
2019-05-01T21:52:25.117Z,12.70
2019-05-01T21:54:55.422Z,12.70
2019-05-01T21:57:24.510Z,12.70
2019-05-01T21:59:55.320Z,12.70
2019-05-01T22:02:25.474Z,12.60
2019-05-01T22:04:55.923Z,12.50
2019-05-01T22:07:27.806Z,12.50
2019-05-01T22:09:57.055Z,12.50
2019-05-01T22:12:26.817Z,12.50
2019-05-01T22:14:59.976Z,12.40
2019-05-01T22:17:44.164Z,12.40
2019-05-01T22:20:18.548Z,12.40
2019-05-01T22:23:10.284Z,12.30
2019-05-01T22:25:44.579Z,12.30
2019-05-01T22:28:36.049Z,12.20
2019-05-01T22:31:27.593Z,12.00
2019-05-01T22:34:18.585Z,11.90
2019-05-01T22:36:48.349Z,11.70
2019-05-01T22:39:19.226Z,11.60
2019-05-01T22:41:49.108Z,11.50
2019-05-01T22:44:19.701Z,11.40
2019-05-01T22:46:49.955Z,11.40
2019-05-01T22:49:19.658Z,11.30
2019-05-01T22:51:49.496Z,11.30
2019-05-01T22:54:19.217Z,11.30
2019-05-01T22:56:48.988Z,11.20
2019-05-01T22:59:18.695Z,11.20
2019-05-01T23:01:53.036Z,11.20
2019-05-01T23:04:22.069Z,11.20
2019-05-01T23:06:54.282Z,11.20
2019-05-01T23:09:28.651Z,11.10
2019-05-01T23:11:56.159Z,11.10
2019-05-01T23:14:26.871Z,10.90
2019-05-01T23:17:15.284Z,10.80
2019-05-01T23:19:44.984Z,10.70
2019-05-01T23:22:14.711Z,10.70
2019-05-01T23:24:44.418Z,10.60
2019-05-01T23:27:14.175Z,10.60
2019-05-01T23:29:43.886Z,10.60
2019-05-01T23:32:13.649Z,10.60
2019-05-01T23:34:43.375Z,10.70
2019-05-01T23:37:13.092Z,10.80
2019-05-01T23:39:42.854Z,10.90
2019-05-01T23:42:12.563Z,10.80
2019-05-01T23:44:42.946Z,10.80
2019-05-01T23:47:13.708Z,10.70
2019-05-01T23:49:47.764Z,10.70
2019-05-01T23:52:14.779Z,10.70
2019-05-01T23:54:44.529Z,10.60
2019-05-01T23:57:14.950Z,10.60
2019-05-01T23:59:45.575Z,10.50
